Terminal Aerodrome Forecast
Issued by NWS

Home | Current Version | Previous Version | Text Only | Print | Product List | Glossary On
Versions: 1 2 3 4 5 6 7 8 9 10 11 12 13 14 15 16 17 18 19
000
FTPA31 PHFO 260500
TAFITO
TAF
PHTO 260520Z 2606/2706 04008KT P6SM VCSH SCT025 BKN045
      TEMPO 2606/2609 5SM RA BR BKN020
     FM260900 23006KT P6SM VCSH SCT022 BKN040
     FM262000 09008KT P6SM SCT025 BKN050
     FM270200 04008KT P6SM VCSH SCT025 BKN045=

USA.gov is the U.S. government's official web portal to all federal, state and local government web resources and services.